Time;durP1;ratioP1;P1;durP2;ratioP2;P2;SDS_P1;SDS_P2;PMS_P1;PMS_P2;Temp;Humidity;BMP_temperature;BMP_pressure;BME280_temperature;BME280_humidity;BME280_pressure;Samples;Min_cycle;Max_cycle;Signal;HPM_P1;HPM_P2
2023/04/03 00:04:16;;;;;;;2.15;1.92;;;;;;;;;;12862688;23;20019;-84
2023/04/03 00:09:18;;;;;;;2.75;2.42;;;;;;;;;;12841016;23;20036;-83
2023/04/03 00:14:20;;;;;;;4.03;2.53;;;;;;;;;;12847094;23;20026;-84
2023/04/03 00:19:20;;;;;;;2.97;2.22;;;;;;;;;;12845826;23;20385;-83
2023/04/03 00:24:21;;;;;;;3.10;2.45;;;;;;;;;;12854340;23;20052;-84
2023/04/03 00:29:22;;;;;;;2.65;2.10;;;;;;;;;;12878115;22;20095;-82
2023/04/03 00:34:26;;;;;;;2.95;2.25;;;;;;;;;;12899508;22;20024;-82
2023/04/03 00:39:27;;;;;;;3.10;2.30;;;;;;;;;;12879029;23;20004;-85
2023/04/03 00:44:27;;;;;;;4.43;2.55;;;;;;;;;;12877409;23;20009;-82
2023/04/03 00:49:29;;;;;;;2.53;2.25;;;;;;;;;;12886658;23;20029;-81
2023/04/03 00:54:29;;;;;;;2.65;2.30;;;;;;;;;;12862575;23;20077;-84
2023/04/03 00:59:33;;;;;;;2.83;2.40;;;;;;;;;;12852051;23;20020;-82
2023/04/03 01:04:36;;;;;;;2.65;2.45;;;;;;;;;;12846934;23;20202;-80
2023/04/03 01:09:38;;;;;;;;;;;;;;;;;;12846104;23;20115;-80
2023/04/03 01:14:38;;;;;;;2.90;2.35;;;;;;;;;;12850034;23;19922;-80
2023/04/03 01:19:43;;;;;;;2.50;2.30;;;;;;;;;;12846208;23;20008;-79
2023/04/03 01:24:46;;;;;;;3.60;2.40;;;;;;;;;;12834447;22;20000;-79
2023/04/03 01:29:46;;;;;;;2.35;2.13;;;;;;;;;;12904823;22;20031;-79
2023/04/03 01:34:47;;;;;;;2.92;2.17;;;;;;;;;;12863198;23;20040;-79
2023/04/03 01:39:47;;;;;;;3.30;2.40;;;;;;;;;;12816041;23;20021;-82
2023/04/03 01:44:50;;;;;;;5.53;2.67;;;;;;;;;;12843998;23;20173;-83
2023/04/03 01:49:50;;;;;;;2.92;2.20;;;;;;;;;;12826792;23;20027;-81
2023/04/03 01:54:50;;;;;;;8.10;3.80;;;;;;;;;;12832115;23;20036;-79
2023/04/03 01:59:51;;;;;;;5.93;3.72;;;;;;;;;;12843670;23;20084;-81
2023/04/03 02:04:52;;;;;;;10.05;4.93;;;;;;;;;;12842841;23;20322;-81
2023/04/03 02:09:53;;;;;;;14.55;5.93;;;;;;;;;;12816953;23;20115;-79
2023/04/03 02:14:54;;;;;;;3.60;2.90;;;;;;;;;;12815698;23;20084;-79
2023/04/03 02:19:55;;;;;;;2.60;2.25;;;;;;;;;;12840402;23;20013;-80
2023/04/03 02:24:55;;;;;;;4.00;2.22;;;;;;;;;;12840555;23;20113;-80
2023/04/03 02:29:57;;;;;;;6.65;2.75;;;;;;;;;;12814296;23;20024;-80
2023/04/03 02:34:59;;;;;;;4.22;2.72;;;;;;;;;;12814455;23;20024;-80
2023/04/03 02:39:59;;;;;;;3.22;2.60;;;;;;;;;;12815827;23;20017;-80
2023/04/03 02:45:01;;;;;;;4.03;2.90;;;;;;;;;;12818805;23;20063;-80
2023/04/03 02:50:02;;;;;;;6.10;2.33;;;;;;;;;;12820132;23;20025;-80
2023/04/03 02:55:05;;;;;;;3.60;2.40;;;;;;;;;;12821753;23;20508;-80
2023/04/03 03:00:06;;;;;;;2.95;2.30;;;;;;;;;;12847473;23;20139;-80
2023/04/03 03:05:07;;;;;;;3.80;2.55;;;;;;;;;;12823382;23;20070;-79
2023/04/03 03:10:07;;;;;;;3.63;2.95;;;;;;;;;;12847912;23;20020;-80
2023/04/03 03:15:09;;;;;;;3.50;2.92;;;;;;;;;;12832783;23;20009;-80
2023/04/03 03:20:11;;;;;;;3.35;2.70;;;;;;;;;;12820705;23;20714;-83
2023/04/03 03:25:11;;;;;;;5.57;3.50;;;;;;;;;;12860121;23;20028;-82
2023/04/03 03:30:12;;;;;;;6.05;3.33;;;;;;;;;;12860285;23;20020;-81
2023/04/03 03:35:12;;;;;;;4.68;4.07;;;;;;;;;;12828063;23;20043;-81
2023/04/03 03:40:12;;;;;;;5.30;3.13;;;;;;;;;;12865968;23;20013;-82
2023/04/03 03:45:13;;;;;;;4.47;3.30;;;;;;;;;;12885549;23;20018;-79
2023/04/03 03:50:15;;;;;;;5.28;2.88;;;;;;;;;;12839229;23;20063;-82
2023/04/03 03:55:16;;;;;;;4.38;3.45;;;;;;;;;;12875934;23;20023;-83
2023/04/03 04:00:17;;;;;;;6.28;3.63;;;;;;;;;;12845421;23;20098;-82
2023/04/03 04:05:26;;;;;;;5.93;3.60;;;;;;;;;;12814442;23;20025;-80
2023/04/03 04:10:27;;;;;;;6.25;4.15;;;;;;;;;;12791240;23;20350;-81
2023/04/03 04:15:30;;;;;;;7.50;4.22;;;;;;;;;;12815532;23;20015;-81
2023/04/03 04:20:32;;;;;;;6.05;4.07;;;;;;;;;;12818666;23;20114;-78
2023/04/03 04:25:33;;;;;;;6.93;3.67;;;;;;;;;;12798637;23;20020;-81
2023/04/03 04:30:33;;;;;;;5.88;4.10;;;;;;;;;;12819581;23;20035;-83
2023/04/03 04:35:34;;;;;;;3.80;3.50;;;;;;;;;;12820895;23;20012;-81
2023/04/03 04:40:37;;;;;;;5.18;4.55;;;;;;;;;;12844138;23;20017;-81
2023/04/03 04:45:38;;;;;;;5.95;4.20;;;;;;;;;;12820215;23;20066;-82
2023/04/03 04:50:38;;;;;;;6.68;4.35;;;;;;;;;;12821126;23;20024;-82
2023/04/03 04:55:39;;;;;;;4.97;4.30;;;;;;;;;;12839134;23;20012;-81
2023/04/03 05:00:40;;;;;;;7.80;4.30;;;;;;;;;;12830325;23;20084;-79
2023/04/03 05:05:41;;;;;;;4.70;4.20;;;;;;;;;;12796549;23;20051;-82
2023/04/03 05:10:42;;;;;;;7.55;4.10;;;;;;;;;;12853393;23;20109;-83
2023/04/03 05:15:42;;;;;;;7.28;4.00;;;;;;;;;;12842103;23;20349;-81
2023/04/03 05:20:43;;;;;;;4.78;4.18;;;;;;;;;;12860373;23;20005;-83
2023/04/03 05:25:46;;;;;;;4.40;4.00;;;;;;;;;;12850204;23;20320;-82
2023/04/03 05:30:55;;;;;;;5.75;4.30;;;;;;;;;;12825313;23;20028;-82
2023/04/03 05:36:01;;;;;;;4.68;3.88;;;;;;;;;;12823217;23;20008;-79
2023/04/03 05:41:01;;;;;;;4.72;4.32;;;;;;;;;;12831428;23;20519;-82
2023/04/03 05:46:02;;;;;;;5.47;3.80;;;;;;;;;;12823919;23;20012;-80
2023/04/03 05:51:05;;;;;;;4.35;3.85;;;;;;;;;;12824478;23;20020;-81
2023/04/03 05:56:07;;;;;;;6.57;3.90;;;;;;;;;;12795091;23;20476;-81
2023/04/03 06:01:15;;;;;;;3.83;3.22;;;;;;;;;;12821727;23;20129;-79
2023/04/03 06:06:16;;;;;;;4.80;3.38;;;;;;;;;;12839452;23;20016;-81
2023/04/03 06:11:17;;;;;;;3.85;3.13;;;;;;;;;;12859764;23;20013;-82
2023/04/03 06:16:18;;;;;;;4.88;4.28;;;;;;;;;;12898690;23;20008;-78
2023/04/03 06:21:18;;;;;;;5.38;3.15;;;;;;;;;;12905132;23;20008;-83
2023/04/03 06:26:20;;;;;;;4.47;3.30;;;;;;;;;;12885090;23;20020;-81
2023/04/03 06:31:22;;;;;;;4.38;3.42;;;;;;;;;;12882614;23;20027;-79
2023/04/03 06:36:23;;;;;;;5.88;3.00;;;;;;;;;;12882977;23;19992;-80
2023/04/03 06:41:23;;;;;;;5.47;3.15;;;;;;;;;;12882583;23;20000;-79
2023/04/03 06:46:25;;;;;;;4.68;3.10;;;;;;;;;;12915959;23;20068;-80
2023/04/03 06:51:27;;;;;;;7.47;3.10;;;;;;;;;;12887497;23;19993;-75
2023/04/03 06:56:28;;;;;;;7.13;3.35;;;;;;;;;;12905805;23;20021;-76
2023/04/03 07:01:29;;;;;;;4.15;3.42;;;;;;;;;;12835243;23;20016;-75
2023/04/03 07:06:33;;;;;;;5.07;3.10;;;;;;;;;;12864128;23;20012;-78
2023/04/03 07:11:33;;;;;;;;;;;;;;;;;;12822616;23;20123;-82
2023/04/03 07:16:34;;;;;;;4.30;3.42;;;;;;;;;;12822141;23;19931;-83
2023/04/03 07:21:35;;;;;;;4.18;3.47;;;;;;;;;;12845206;23;20095;-83
2023/04/03 07:26:36;;;;;;;4.40;3.40;;;;;;;;;;12857923;23;20032;-84
2023/04/03 07:31:36;;;;;;;5.85;3.42;;;;;;;;;;12838991;23;20027;-82
2023/04/03 07:36:37;;;;;;;4.47;3.77;;;;;;;;;;12852837;23;20008;-82
2023/04/03 07:41:38;;;;;;;4.65;3.10;;;;;;;;;;12853942;23;20284;-82
2023/04/03 07:46:39;;;;;;;5.13;3.17;;;;;;;;;;12851001;23;20020;-83
2023/04/03 07:51:39;;;;;;;6.22;3.42;;;;;;;;;;12821542;23;20016;-83
2023/04/03 07:56:40;;;;;;;5.60;3.78;;;;;;;;;;12850657;23;20023;-83
2023/04/03 08:01:40;;;;;;;4.93;3.78;;;;;;;;;;12858708;23;20083;-82
2023/04/03 08:06:41;;;;;;;5.15;3.45;;;;;;;;;;12839146;23;20013;-83
2023/04/03 08:11:44;;;;;;;5.78;3.53;;;;;;;;;;12840961;23;20012;-82
2023/04/03 08:16:45;;;;;;;6.22;3.35;;;;;;;;;;12856521;23;20508;-83
2023/04/03 08:21:46;;;;;;;7.75;3.60;;;;;;;;;;12853949;23;20012;-81
2023/04/03 08:26:47;;;;;;;4.50;3.20;;;;;;;;;;12845160;23;20048;-82
2023/04/03 08:31:49;;;;;;;5.20;3.67;;;;;;;;;;12860716;23;20031;-84
2023/04/03 08:36:50;;;;;;;3.83;3.05;;;;;;;;;;12883926;23;19996;-81
2023/04/03 08:41:50;;;;;;;4.03;3.10;;;;;;;;;;12903734;23;20111;-82
2023/04/03 08:47:10;;;;;;;3.88;2.58;;;;;;;;;;12894233;23;20020;-82
2023/04/03 08:52:12;;;;;;;5.45;3.10;;;;;;;;;;12824990;23;20373;-86
2023/04/03 08:57:12;;;;;;;4.75;3.15;;;;;;;;;;12820617;23;20040;-85
2023/04/03 09:02:28;;;;;;;4.60;2.70;;;;;;;;;;12875180;23;20142;-81
2023/04/03 09:07:36;;;;;;;4.90;2.70;;;;;;;;;;12893764;22;20259;-83
2023/04/03 09:12:41;;;;;;;3.13;2.05;;;;;;;;;;12902760;22;20076;-81
2023/04/03 09:17:46;;;;;;;3.28;2.28;;;;;;;;;;12863487;23;20023;-83
2023/04/03 09:22:48;;;;;;;4.20;2.00;;;;;;;;;;12878212;23;20428;-84
2023/04/03 09:27:48;;;;;;;6.00;2.72;;;;;;;;;;12842810;23;20047;-82
2023/04/03 09:32:50;;;;;;;5.03;2.83;;;;;;;;;;12852626;23;20008;-82
2023/04/03 09:37:52;;;;;;;2.58;2.30;;;;;;;;;;12867303;23;20210;-82
2023/04/03 09:42:56;;;;;;;3.72;2.20;;;;;;;;;;12857144;23;20082;-83
2023/04/03 09:48:16;;;;;;;4.77;2.30;;;;;;;;;;12874513;23;20047;-85
2023/04/03 09:53:30;;;;;;;5.28;2.53;;;;;;;;;;12822931;23;20016;-81
2023/04/03 09:58:37;;;;;;;5.80;2.88;;;;;;;;;;12849857;23;20065;-83
2023/04/03 10:03:46;;;;;;;3.47;2.53;;;;;;;;;;12855780;23;20034;-85
2023/04/03 10:08:58;;;;;;;4.68;2.10;;;;;;;;;;12883146;23;20020;-84
2023/04/03 10:14:00;;;;;;;2.90;2.00;;;;;;;;;;12853271;23;20024;-81
2023/04/03 10:19:04;;;;;;;3.40;2.42;;;;;;;;;;12853531;23;20020;-81
2023/04/03 10:24:14;;;;;;;4.32;2.38;;;;;;;;;;12868899;23;20012;-83
2023/04/03 10:29:14;;;;;;;6.30;2.60;;;;;;;;;;12832257;23;20195;-84
2023/04/03 10:34:21;;;;;;;4.88;2.30;;;;;;;;;;12810022;23;20016;-84
2023/04/03 10:39:33;;;;;;;4.00;2.30;;;;;;;;;;12839918;23;20037;-85
2023/04/03 10:44:45;;;;;;;2.42;2.20;;;;;;;;;;12821071;23;20013;-86
2023/04/03 10:49:55;;;;;;;3.67;2.73;;;;;;;;;;12861368;23;20097;-82
2023/04/03 10:55:02;;;;;;;3.20;2.10;;;;;;;;;;12870583;23;20064;-86
2023/04/03 11:00:10;;;;;;;3.75;2.38;;;;;;;;;;12838762;22;20032;-80
2023/04/03 11:05:19;;;;;;;3.92;2.50;;;;;;;;;;12872583;23;20027;-82
2023/04/03 11:10:26;;;;;;;4.40;2.60;;;;;;;;;;12884649;22;20286;-81
2023/04/03 11:26:18;;;;;;;3.95;2.30;;;;;;;;;;12847274;23;20001;-81
2023/04/03 11:31:26;;;;;;;4.85;2.67;;;;;;;;;;12847534;23;20020;-83
2023/04/03 11:36:30;;;;;;;5.40;2.80;;;;;;;;;;12798927;23;20013;-82
2023/04/03 11:41:32;;;;;;;2.65;2.13;;;;;;;;;;12839033;23;20036;-82
2023/04/03 11:46:51;;;;;;;4.72;2.38;;;;;;;;;;12842633;23;20012;-82
2023/04/03 11:51:52;;;;;;;3.25;2.30;;;;;;;;;;12842916;23;20001;-85
2023/04/03 11:56:52;;;;;;;3.08;2.22;;;;;;;;;;12834319;23;20032;-83
2023/04/03 12:01:53;;;;;;;2.40;2.20;;;;;;;;;;12802665;23;20005;-84
2023/04/03 12:07:02;;;;;;;2.88;2.30;;;;;;;;;;12832278;23;20409;-84
2023/04/03 12:12:22;;;;;;;3.33;2.40;;;;;;;;;;12869219;23;20009;-84
2023/04/03 12:17:27;;;;;;;3.30;2.35;;;;;;;;;;12843903;23;20790;-84
2023/04/03 12:22:27;;;;;;;2.78;2.00;;;;;;;;;;12853973;23;20047;-84
2023/04/03 12:27:38;;;;;;;2.97;2.20;;;;;;;;;;12852968;23;20016;-84
2023/04/03 12:32:47;;;;;;;2.42;2.20;;;;;;;;;;12873079;23;20289;-81
2023/04/03 12:38:09;;;;;;;2.88;2.13;;;;;;;;;;12859600;23;20004;-82
2023/04/03 12:43:31;;;;;;;3.13;2.40;;;;;;;;;;12854425;22;20057;-85
2023/04/03 12:48:37;;;;;;;6.50;2.50;;;;;;;;;;12868306;23;20008;-86
2023/04/03 12:53:38;;;;;;;2.33;2.13;;;;;;;;;;12873367;23;20071;-80
2023/04/03 12:58:42;;;;;;;3.05;2.10;;;;;;;;;;12879029;22;20044;-86
2023/04/03 13:03:44;;;;;;;2.33;2.03;;;;;;;;;;12877421;22;20152;-85
2023/04/03 13:08:52;;;;;;;3.92;2.38;;;;;;;;;;12867512;23;20013;-85
2023/04/03 13:14:01;;;;;;;3.90;2.20;;;;;;;;;;12875396;23;20094;-84
2023/04/03 13:19:03;;;;;;;3.45;2.30;;;;;;;;;;12886475;22;20020;-84
2023/04/03 13:24:04;;;;;;;2.00;1.80;;;;;;;;;;12869137;22;20012;-78
2023/04/03 13:34:40;;;;;;;4.65;2.35;;;;;;;;;;12783055;23;20060;-79
2023/04/03 13:39:41;;;;;;;3.20;2.20;;;;;;;;;;12782803;23;20054;-81
2023/04/03 13:44:43;;;;;;;2.47;2.00;;;;;;;;;;12765002;22;20050;-79
2023/04/03 13:49:45;;;;;;;3.90;2.45;;;;;;;;;;12874897;23;20088;-80
2023/04/03 14:00:29;;;;;;;2.92;2.15;;;;;;;;;;12848855;23;19993;-78
2023/04/03 14:05:30;;;;;;;6.90;2.22;;;;;;;;;;12848773;23;20004;-80
2023/04/03 14:10:30;;;;;;;2.80;2.22;;;;;;;;;;12802003;22;20008;-78
2023/04/03 14:15:31;;;;;;;2.92;2.42;;;;;;;;;;12806289;23;20009;-84
2023/04/03 14:20:32;;;;;;;2.38;1.90;;;;;;;;;;12812856;23;20013;-83
2023/04/03 14:25:33;;;;;;;3.55;1.95;;;;;;;;;;12793162;23;20068;-75
2023/04/03 14:30:36;;;;;;;4.70;2.15;;;;;;;;;;12789065;23;20027;-71
2023/04/03 14:35:37;;;;;;;3.72;2.50;;;;;;;;;;12821812;23;20027;-81
2023/04/03 14:40:37;;;;;;;3.10;2.10;;;;;;;;;;12754794;23;20556;-80
2023/04/03 14:45:38;;;;;;;3.37;2.37;;;;;;;;;;12808907;23;20481;-83
2023/04/03 14:50:40;;;;;;;3.78;2.80;;;;;;;;;;12769819;23;20283;-81
2023/04/03 14:55:46;;;;;;;3.60;2.93;;;;;;;;;;12790572;23;20019;-82
2023/04/03 15:00:47;;;;;;;12.98;8.95;;;;;;;;;;12785059;23;20248;-80
2023/04/03 15:05:48;;;;;;;2.83;2.30;;;;;;;;;;12796691;23;20020;-81
2023/04/03 15:10:48;;;;;;;3.33;2.03;;;;;;;;;;12791632;23;20417;-79
2023/04/03 15:15:49;;;;;;;7.03;5.28;;;;;;;;;;12786165;23;20013;-79
2023/04/03 15:20:50;;;;;;;15.60;9.52;;;;;;;;;;12763208;23;20088;-79
2023/04/03 15:25:50;;;;;;;4.37;2.17;;;;;;;;;;12761862;23;20794;-84
2023/04/03 15:30:51;;;;;;;2.58;2.30;;;;;;;;;;12791212;23;20305;-81
2023/04/03 15:35:53;;;;;;;2.78;2.20;;;;;;;;;;12822727;23;20013;-80
2023/04/03 15:40:54;;;;;;;2.67;1.95;;;;;;;;;;12839064;23;20317;-80
2023/04/03 15:45:59;;;;;;;2.72;2.38;;;;;;;;;;12785426;23;20013;-80
2023/04/03 15:51:01;;;;;;;2.25;1.95;;;;;;;;;;12838098;23;20032;-80
2023/04/03 15:56:04;;;;;;;2.45;2.10;;;;;;;;;;12823607;23;20151;-84
2023/04/03 16:01:06;;;;;;;2.40;1.80;;;;;;;;;;12798404;23;20002;-83
2023/04/03 16:06:06;;;;;;;2.85;2.15;;;;;;;;;;12824172;23;20013;-85
2023/04/03 16:11:08;;;;;;;3.25;1.90;;;;;;;;;;12822313;23;20040;-81
2023/04/03 16:16:09;;;;;;;3.13;1.88;;;;;;;;;;12833269;23;20016;-82
2023/04/03 16:21:10;;;;;;;3.95;2.50;;;;;;;;;;12848412;23;20261;-78
2023/04/03 16:26:11;;;;;;;3.08;2.00;;;;;;;;;;12844050;23;20005;-83
2023/04/03 16:31:11;;;;;;;2.65;2.00;;;;;;;;;;12848827;23;20052;-82
2023/04/03 16:36:12;;;;;;;4.25;1.90;;;;;;;;;;12822643;23;20013;-82
2023/04/03 16:41:12;;;;;;;3.08;1.92;;;;;;;;;;12786179;23;20017;-81
2023/04/03 16:46:13;;;;;;;3.20;1.98;;;;;;;;;;12795264;23;20024;-82
2023/04/03 16:51:14;;;;;;;2.83;1.97;;;;;;;;;;12787188;23;20020;-81
2023/04/03 16:56:14;;;;;;;3.63;1.70;;;;;;;;;;12811159;23;20256;-84
2023/04/03 17:01:17;;;;;;;3.25;2.00;;;;;;;;;;12806374;23;20019;-78
2023/04/03 17:06:19;;;;;;;3.67;1.90;;;;;;;;;;12803733;23;20020;-82
2023/04/03 17:11:20;;;;;;;3.87;1.67;;;;;;;;;;12800976;23;20048;-79
2023/04/03 17:16:22;;;;;;;1.90;1.33;;;;;;;;;;12794082;23;20322;-80
2023/04/03 17:21:22;;;;;;;2.72;1.42;;;;;;;;;;12792647;23;20016;-81
2023/04/03 17:26:23;;;;;;;1.67;1.52;;;;;;;;;;12802277;23;20013;-81
2023/04/03 17:31:24;;;;;;;2.90;1.75;;;;;;;;;;12792698;23;20513;-81
2023/04/03 17:36:24;;;;;;;2.20;1.50;;;;;;;;;;12790104;23;20036;-80
2023/04/03 17:41:26;;;;;;;2.60;1.60;;;;;;;;;;12791693;23;20021;-81
2023/04/03 17:46:27;;;;;;;3.00;1.65;;;;;;;;;;12812552;23;19996;-81
2023/04/03 17:51:27;;;;;;;3.25;1.58;;;;;;;;;;12836982;23;20036;-80
2023/04/03 17:56:27;;;;;;;2.72;2.22;;;;;;;;;;12807828;23;20817;-81
2023/04/03 18:01:31;;;;;;;2.10;1.60;;;;;;;;;;12795015;23;20020;-80
2023/04/03 18:06:37;;;;;;;4.68;1.92;;;;;;;;;;12796115;23;20259;-81
2023/04/03 18:11:38;;;;;;;4.97;1.60;;;;;;;;;;12816041;23;20489;-81
2023/04/03 18:16:40;;;;;;;2.07;1.67;;;;;;;;;;12835457;23;19997;-79
2023/04/03 18:21:41;;;;;;;2.15;1.40;;;;;;;;;;12827436;23;20013;-80
2023/04/03 18:26:45;;;;;;;2.50;1.33;;;;;;;;;;12825043;23;20247;-79
2023/04/03 18:31:48;;;;;;;3.17;1.30;;;;;;;;;;12845614;23;20001;-82
2023/04/03 18:36:52;;;;;;;3.42;1.40;;;;;;;;;;12848665;23;19989;-78
2023/04/03 18:41:53;;;;;;;1.58;1.27;;;;;;;;;;12823140;23;20429;-80
2023/04/03 18:46:58;;;;;;;2.53;1.33;;;;;;;;;;12795506;23;20013;-82
2023/04/03 18:52:01;;;;;;;2.83;1.73;;;;;;;;;;12790678;23;20505;-80
2023/04/03 18:57:02;;;;;;;3.33;1.63;;;;;;;;;;12787822;23;20009;-80
2023/04/03 19:02:06;;;;;;;2.67;1.50;;;;;;;;;;12793626;23;20025;-82
2023/04/03 19:07:08;;;;;;;3.03;1.23;;;;;;;;;;12790737;23;20055;-80
2023/04/03 19:12:08;;;;;;;1.25;1.08;;;;;;;;;;12785893;23;20048;-84
2023/04/03 19:17:12;;;;;;;2.47;1.50;;;;;;;;;;12797381;23;20052;-81
2023/04/03 19:22:13;;;;;;;2.78;1.35;;;;;;;;;;12788410;23;20040;-82
2023/04/03 19:27:14;;;;;;;2.33;1.40;;;;;;;;;;12783788;23;20021;-81
2023/04/03 19:32:14;;;;;;;2.78;1.60;;;;;;;;;;12781176;23;20175;-80
2023/04/03 19:37:17;;;;;;;3.17;1.50;;;;;;;;;;12779676;23;20083;-80
2023/04/03 19:42:30;;;;;;;4.18;1.88;;;;;;;;;;12782139;23;20009;-82
2023/04/03 19:47:35;;;;;;;2.03;1.42;;;;;;;;;;12785999;23;20028;-82
2023/04/03 19:52:39;;;;;;;4.70;1.92;;;;;;;;;;12783154;23;20046;-82
2023/04/03 19:57:39;;;;;;;2.50;1.42;;;;;;;;;;12782872;23;20025;-81
2023/04/03 20:02:42;;;;;;;3.55;1.58;;;;;;;;;;12813863;23;20037;-82
2023/04/03 20:07:42;;;;;;;3.53;1.70;;;;;;;;;;12799820;23;20028;-84
2023/04/03 20:12:45;;;;;;;1.58;1.40;;;;;;;;;;12761168;23;20028;-82
2023/04/03 20:17:46;;;;;;;1.90;1.23;;;;;;;;;;12782799;23;20020;-82
2023/04/03 20:22:47;;;;;;;2.53;1.33;;;;;;;;;;12781380;23;20053;-81
2023/04/03 20:27:53;;;;;;;3.90;1.55;;;;;;;;;;12783331;23;20029;-81
2023/04/03 20:32:54;;;;;;;3.00;2.10;;;;;;;;;;12783618;23;20035;-80
2023/04/03 20:37:56;;;;;;;2.92;1.70;;;;;;;;;;12798193;23;20024;-78
2023/04/03 20:42:58;;;;;;;2.80;1.60;;;;;;;;;;12816492;23;20025;-83
2023/04/03 20:48:00;;;;;;;3.40;1.75;;;;;;;;;;12807864;23;20021;-78
2023/04/03 20:53:02;;;;;;;2.88;1.90;;;;;;;;;;12821986;23;20375;-80
2023/04/03 20:58:02;;;;;;;3.83;1.60;;;;;;;;;;12846114;23;20017;-79
2023/04/03 21:03:04;;;;;;;2.00;1.58;;;;;;;;;;12841901;23;19997;-80
2023/04/03 21:08:24;;;;;;;9.75;4.75;;;;;;;;;;12839895;23;20024;-80
2023/04/03 21:13:45;;;;;;;2.67;1.70;;;;;;;;;;12840052;23;20001;-81
2023/04/03 21:18:54;;;;;;;3.13;1.95;;;;;;;;;;12836531;23;20013;-80
2023/04/03 21:23:55;;;;;;;3.00;1.90;;;;;;;;;;12812798;23;20021;-82
2023/04/03 21:28:58;;;;;;;1.98;1.67;;;;;;;;;;12817378;23;20021;-79
2023/04/03 21:33:59;;;;;;;2.35;1.80;;;;;;;;;;12801338;23;20016;-79
2023/04/03 21:39:00;;;;;;;2.20;2.00;;;;;;;;;;12797121;23;20017;-79
2023/04/03 21:44:02;;;;;;;2.90;1.60;;;;;;;;;;12791775;23;20111;-78
2023/04/03 21:49:04;;;;;;;3.85;1.75;;;;;;;;;;12789465;23;20052;-80
2023/04/03 21:54:06;;;;;;;3.80;1.85;;;;;;;;;;12801935;23;20071;-81
2023/04/03 21:59:06;;;;;;;3.05;1.70;;;;;;;;;;12788974;23;20067;-79
2023/04/03 22:04:08;;;;;;;3.33;2.15;;;;;;;;;;12792874;23;20020;-81
2023/04/03 22:09:08;;;;;;;5.07;2.00;;;;;;;;;;12701324;23;1673855;-80
2023/04/03 22:14:08;;;;;;;2.83;2.10;;;;;;;;;;12813630;23;20276;-81
2023/04/03 22:19:09;;;;;;;2.47;1.63;;;;;;;;;;12788588;23;20024;-81
2023/04/03 22:24:19;;;;;;;2.25;1.48;;;;;;;;;;12781658;23;20083;-79
2023/04/03 22:29:19;;;;;;;4.80;2.30;;;;;;;;;;12779415;23;20009;-79
2023/04/03 22:34:21;;;;;;;3.55;1.80;;;;;;;;;;12781917;23;20017;-81
2023/04/03 22:39:22;;;;;;;2.55;1.83;;;;;;;;;;12793752;23;20548;-84
2023/04/03 22:44:24;;;;;;;2.77;1.80;;;;;;;;;;12783324;23;20036;-82
2023/04/03 22:49:26;;;;;;;4.43;1.90;;;;;;;;;;12835142;23;20268;-81
2023/04/03 22:54:26;;;;;;;2.20;2.00;;;;;;;;;;12829487;23;20347;-79
2023/04/03 22:59:26;;;;;;;3.67;2.23;;;;;;;;;;12813963;23;20048;-80
2023/04/03 23:04:28;;;;;;;3.58;1.75;;;;;;;;;;12829770;23;20248;-78
2023/04/03 23:09:29;;;;;;;3.88;1.95;;;;;;;;;;12808729;23;20029;-78
2023/04/03 23:14:29;;;;;;;1.85;1.67;;;;;;;;;;12783467;23;20097;-79
2023/04/03 23:19:31;;;;;;;2.97;2.03;;;;;;;;;;12788454;23;20009;-79
2023/04/03 23:24:31;;;;;;;4.20;2.17;;;;;;;;;;12798610;23;20036;-76
2023/04/03 23:29:32;;;;;;;2.90;1.77;;;;;;;;;;12794312;23;20025;-78
2023/04/03 23:34:32;;;;;;;3.42;1.83;;;;;;;;;;12785709;23;20019;-79
2023/04/03 23:39:34;;;;;;;1.98;1.77;;;;;;;;;;12781087;23;20012;-79
2023/04/03 23:44:40;;;;;;;2.83;1.90;;;;;;;;;;12779607;23;20036;-80
2023/04/03 23:49:43;;;;;;;2.47;2.10;;;;;;;;;;12781538;23;20021;-77
2023/04/03 23:54:43;;;;;;;3.47;2.33;;;;;;;;;;12784247;23;20017;-80
2023/04/03 23:59:47;;;;;;;2.72;1.92;;;;;;;;;;12782802;23;20005;-82
